Weather at Caen-Carpiquet Airport

Public forecast

Using degrees Celsius for public forecast. Weather courtesy of forecast.io.

Current aviation weather report (METAR) for Caen-Carpiquet Airport

2024/06/14 13:00 (retrieved 22 minutes ago)

LFRK 141300Z AUTO 23010KT 8000 BKN045/// OVC052/// //////TCU 15/12 Q1005 TEMPO 23015G25KT 3000 SHRA BKN012 BKN020CB

Closest aviation forecast (TAF) to Caen-Carpiquet Airport

Closest forecast is Le Havre-Octeville Airport, 30.2 nm (55.9 km) NE.

2024/06/14 12:42 (retrieved 40 minutes ago)

TAF LFOH 141100Z 1412/1512 22010KT 9999 BKN020 TEMPO 1412/1504 4000 SHRA BKN020CB PROB40 TEMPO 1414/1419 1200 TSRAGS TEMPO 1422/1506 23015G35KT